createdAt,value
2022-11-03T00:00:50.097Z,3.07
2022-11-03T00:03:22.209Z,2.87
2022-11-03T00:06:15.608Z,2.93
2022-11-03T00:08:50.136Z,3.20
2022-11-03T00:11:18.773Z,3.00
2022-11-03T00:13:54.106Z,2.90
2022-11-03T00:16:22.616Z,3.27
2022-11-03T00:18:59.179Z,3.27
2022-11-03T00:21:27.642Z,2.57
2022-11-03T00:24:02.159Z,2.83
2022-11-03T00:26:31.789Z,3.23
2022-11-03T00:29:08.179Z,3.17
2022-11-03T00:31:38.641Z,2.83
2022-11-03T00:34:16.119Z,3.00
2022-11-03T00:36:45.543Z,2.90
2022-11-03T00:39:20.294Z,3.20
2022-11-03T00:41:48.607Z,3.00
2022-11-03T00:44:23.310Z,3.03
2022-11-03T00:46:51.518Z,2.90
2022-11-03T00:49:28.300Z,3.00
2022-11-03T00:51:58.784Z,2.87
2022-11-03T00:54:33.087Z,2.70
2022-11-03T00:57:21.307Z,2.73
2022-11-03T00:59:56.132Z,2.80
2022-11-03T01:02:24.518Z,2.83
2022-11-03T01:05:22.098Z,3.13
2022-11-03T01:07:52.234Z,2.67
2022-11-03T01:10:27.114Z,2.63
2022-11-03T01:12:55.645Z,2.47
2022-11-03T01:15:30.085Z,2.50
2022-11-03T01:17:58.315Z,2.50
2022-11-03T01:20:34.359Z,2.73
2022-11-03T01:23:02.497Z,2.20
2022-11-03T01:25:37.376Z,2.57
2022-11-03T01:28:05.885Z,2.50
2022-11-03T01:30:41.129Z,2.63
2022-11-03T01:33:09.475Z,2.67
2022-11-03T01:35:46.175Z,2.87
2022-11-03T01:38:14.541Z,2.37
2022-11-03T01:40:49.251Z,2.63
2022-11-03T01:43:17.935Z,2.77
2022-11-03T01:45:55.157Z,2.97
2022-11-03T01:48:24.207Z,2.57
2022-11-03T01:51:00.214Z,2.43
2022-11-03T01:53:29.882Z,2.70
2022-11-03T01:56:05.232Z,2.50
2022-11-03T01:58:44.858Z,2.80
2022-11-03T02:01:20.271Z,2.90
2022-11-03T02:03:53.314Z,3.00
2022-11-03T02:06:33.140Z,3.00
2022-11-03T02:09:12.138Z,2.83
2022-11-03T02:11:58.206Z,2.60
2022-11-03T02:14:33.205Z,2.40
2022-11-03T02:17:05.629Z,2.90
2022-11-03T02:19:43.198Z,2.80
2022-11-03T02:22:43.382Z,2.93
2022-11-03T02:25:26.228Z,3.00
2022-11-03T02:27:56.249Z,3.03
2022-11-03T02:30:31.377Z,2.80
2022-11-03T02:33:05.852Z,2.67
2022-11-03T02:35:48.368Z,2.80
2022-11-03T02:38:21.070Z,2.80
2022-11-03T02:41:00.340Z,2.70
2022-11-03T02:43:30.804Z,2.97
2022-11-03T02:46:06.294Z,2.70
2022-11-03T02:48:34.461Z,2.70
2022-11-03T02:51:11.282Z,2.90
2022-11-03T02:53:45.912Z,2.70
2022-11-03T02:56:25.428Z,3.00
2022-11-03T02:59:10.175Z,2.70
2022-11-03T03:01:54.322Z,2.83
2022-11-03T03:04:28.464Z,2.40
2022-11-03T03:07:08.262Z,2.83
2022-11-03T03:09:41.194Z,2.87
2022-11-03T03:12:18.240Z,2.83
2022-11-03T03:14:50.037Z,2.97
2022-11-03T03:17:32.252Z,2.60
2022-11-03T03:20:05.489Z,2.47
2022-11-03T03:22:44.456Z,2.93
2022-11-03T03:25:17.608Z,2.70
2022-11-03T03:27:57.273Z,2.70
2022-11-03T03:30:28.228Z,2.63
2022-11-03T03:33:04.685Z,2.83
2022-11-03T03:35:35.982Z,2.83
2022-11-03T03:38:16.283Z,2.83
2022-11-03T03:40:48.063Z,2.73
2022-11-03T03:43:23.352Z,2.73
2022-11-03T03:45:56.003Z,2.97
2022-11-03T03:48:31.639Z,2.47
2022-11-03T03:51:01.792Z,2.87
2022-11-03T03:53:38.250Z,2.60
2022-11-03T03:56:08.638Z,3.00
2022-11-03T03:58:56.473Z,2.70
2022-11-03T04:01:35.718Z,2.63
2022-11-03T04:04:10.331Z,2.70
2022-11-03T04:06:40.663Z,2.53
2022-11-03T04:09:16.310Z,2.80
2022-11-03T04:12:02.102Z,3.13
2022-11-03T04:14:54.663Z,2.57
2022-11-03T04:17:41.677Z,2.47
2022-11-03T04:20:38.520Z,2.90
2022-11-03T04:23:07.017Z,2.70
2022-11-03T04:25:43.356Z,2.60
2022-11-03T04:28:14.981Z,2.60
2022-11-03T04:30:53.377Z,3.03
2022-11-03T04:33:26.165Z,2.90
2022-11-03T04:36:03.323Z,2.97
2022-11-03T04:38:32.189Z,3.00
2022-11-03T04:41:08.342Z,2.37
2022-11-03T04:43:39.164Z,3.57
2022-11-03T04:46:17.397Z,2.80
2022-11-03T04:48:48.119Z,3.20
2022-11-03T04:51:25.433Z,2.43
2022-11-03T04:54:00.175Z,2.90
2022-11-03T04:56:35.411Z,2.80
2022-11-03T04:59:13.879Z,3.30
2022-11-03T05:01:51.657Z,3.37
2022-11-03T05:04:28.367Z,2.50
2022-11-03T05:06:56.647Z,2.70
2022-11-03T05:09:36.799Z,3.00
2022-11-03T05:12:10.704Z,2.83
2022-11-03T05:14:45.543Z,2.40
2022-11-03T05:17:24.207Z,2.73
2022-11-03T05:20:04.555Z,2.97
2022-11-03T05:22:36.623Z,2.73
2022-11-03T05:25:43.427Z,2.70
2022-11-03T05:28:20.679Z,2.73
2022-11-03T05:30:56.578Z,2.97
2022-11-03T05:33:29.829Z,2.33
2022-11-03T05:36:09.366Z,3.00
2022-11-03T05:38:37.564Z,3.30
2022-11-03T05:41:19.553Z,2.57
2022-11-03T05:43:53.935Z,3.03
2022-11-03T05:46:28.454Z,3.10
2022-11-03T05:48:57.038Z,3.20
2022-11-03T05:51:37.481Z,2.80
2022-11-03T05:54:20.586Z,2.40
2022-11-03T05:56:58.247Z,2.87
2022-11-03T05:59:34.679Z,2.90
2022-11-03T06:02:11.699Z,2.63
2022-11-03T06:04:40.784Z,2.53
2022-11-03T06:07:23.474Z,3.00
2022-11-03T06:09:54.186Z,2.37
2022-11-03T06:12:30.643Z,2.97
2022-11-03T06:14:58.968Z,2.60
2022-11-03T06:17:36.611Z,2.90
2022-11-03T06:20:17.245Z,2.63
2022-11-03T06:22:56.242Z,2.23
2022-11-03T06:25:31.417Z,2.70
2022-11-03T06:28:11.577Z,2.60
2022-11-03T06:33:25.444Z,2.80
2022-11-03T06:35:56.260Z,2.37
2022-11-03T06:38:37.487Z,2.40
2022-11-03T06:41:05.902Z,2.57
2022-11-03T06:43:46.530Z,2.33
2022-11-03T06:46:19.982Z,2.90
2022-11-03T06:48:55.445Z,2.57
2022-11-03T06:51:26.150Z,2.40
2022-11-03T06:54:05.430Z,2.63
2022-11-03T06:56:38.553Z,2.43
2022-11-03T06:59:23.648Z,2.50
2022-11-03T07:01:56.469Z,2.70
2022-11-03T07:04:35.634Z,2.90
2022-11-03T07:07:05.817Z,2.73
2022-11-03T07:09:42.475Z,2.07
2022-11-03T07:12:18.560Z,2.60
2022-11-03T07:14:53.514Z,2.80
2022-11-03T07:17:24.238Z,2.67
2022-11-03T07:19:59.549Z,2.33
2022-11-03T07:22:28.742Z,2.97
2022-11-03T07:25:08.587Z,2.40
2022-11-03T07:27:39.977Z,2.73
2022-11-03T07:30:26.538Z,2.30
2022-11-03T07:32:55.926Z,2.33
2022-11-03T07:36:13.087Z,2.03
2022-11-03T07:38:31.676Z,2.30
2022-11-03T07:41:08.562Z,2.67
2022-11-03T07:43:38.489Z,2.23
2022-11-03T07:46:14.524Z,2.20
2022-11-03T07:48:47.792Z,2.13
2022-11-03T07:51:28.660Z,2.40
2022-11-03T07:53:59.979Z,2.43
2022-11-03T07:56:40.507Z,2.10
2022-11-03T08:02:05.659Z,2.13
2022-11-03T08:04:36.664Z,2.13
2022-11-03T08:07:11.522Z,2.37
2022-11-03T08:09:42.976Z,2.17
2022-11-03T08:12:19.541Z,2.10
2022-11-03T08:14:47.984Z,2.10
2022-11-03T08:17:22.539Z,2.17
2022-11-03T08:19:50.863Z,2.20
2022-11-03T08:22:25.632Z,2.03
2022-11-03T08:24:54.004Z,2.20
2022-11-03T08:27:30.616Z,2.30
2022-11-03T08:29:58.754Z,2.30
2022-11-03T08:32:33.545Z,2.20
2022-11-03T08:35:02.032Z,2.40
2022-11-03T08:37:36.723Z,2.07
2022-11-03T08:40:05.672Z,2.10
2022-11-03T08:42:41.615Z,2.10
2022-11-03T08:45:11.303Z,2.30
2022-11-03T08:47:46.659Z,1.83
2022-11-03T08:50:14.966Z,2.03
2022-11-03T08:52:49.837Z,2.20
2022-11-03T08:55:20.776Z,2.30
2022-11-03T08:57:56.607Z,2.10
2022-11-03T09:00:31.795Z,2.10
2022-11-03T09:03:07.656Z,2.00
2022-11-03T09:05:36.547Z,2.20
2022-11-03T09:11:06.753Z,2.43
2022-11-03T09:13:36.413Z,1.80
2022-11-03T09:16:11.797Z,2.03
2022-11-03T09:18:40.063Z,2.30
2022-11-03T09:21:08.947Z,1.90
2022-11-03T09:23:43.626Z,2.13
2022-11-03T09:26:12.110Z,2.20
2022-11-03T09:28:48.556Z,1.80
2022-11-03T09:31:17.444Z,2.07
2022-11-03T09:33:52.720Z,2.00
2022-11-03T09:36:21.157Z,2.10
2022-11-03T09:38:55.767Z,2.00
2022-11-03T09:41:29.066Z,1.93
2022-11-03T09:44:21.102Z,2.20
2022-11-03T09:46:58.495Z,1.87
2022-11-03T09:49:28.245Z,1.70
2022-11-03T09:52:03.609Z,2.00
2022-11-03T09:54:32.836Z,1.80
2022-11-03T09:57:18.796Z,1.97
2022-11-03T09:59:58.091Z,1.73
2022-11-03T10:02:36.899Z,1.73
2022-11-03T10:05:10.982Z,1.70
2022-11-03T10:10:28.709Z,1.77
2022-11-03T10:13:06.998Z,1.97
2022-11-03T10:15:36.949Z,1.73
2022-11-03T10:18:11.748Z,1.77
2022-11-03T10:20:40.055Z,1.93
2022-11-03T10:23:16.895Z,1.73
2022-11-03T10:25:46.685Z,1.70
2022-11-03T10:28:24.750Z,2.20
2022-11-03T10:31:11.230Z,2.30
2022-11-03T10:33:48.722Z,1.90
2022-11-03T10:36:28.239Z,1.60
2022-11-03T10:39:03.699Z,2.00
2022-11-03T10:41:33.140Z,1.90
2022-11-03T10:44:14.675Z,1.90
2022-11-03T10:46:57.779Z,1.90
2022-11-03T10:49:36.543Z,1.80
2022-11-03T10:52:17.439Z,1.83
2022-11-03T10:54:52.647Z,1.90
2022-11-03T10:57:21.903Z,2.20
2022-11-03T11:00:04.663Z,1.67
2022-11-03T11:02:36.743Z,1.70
2022-11-03T11:05:21.795Z,1.90
2022-11-03T11:07:51.822Z,1.77
2022-11-03T11:10:29.708Z,1.67
2022-11-03T11:13:23.035Z,1.90
2022-11-03T11:15:59.667Z,1.50
2022-11-03T11:19:17.729Z,2.10
2022-11-03T11:22:15.758Z,1.90
2022-11-03T11:25:10.643Z,2.07
2022-11-03T11:28:13.378Z,1.73
2022-11-03T11:31:30.647Z,1.50
2022-11-03T11:34:35.575Z,1.73
2022-11-03T11:37:44.061Z,1.70
2022-11-03T11:40:15.315Z,1.70
2022-11-03T11:43:23.912Z,1.97
2022-11-03T11:46:34.267Z,1.60
2022-11-03T11:49:23.802Z,1.47
2022-11-03T11:51:52.994Z,1.70
2022-11-03T11:54:29.690Z,1.93
2022-11-03T11:56:57.919Z,1.70
2022-11-03T11:59:39.731Z,1.60
2022-11-03T12:02:20.671Z,1.63
2022-11-03T12:04:55.768Z,1.67
2022-11-03T12:07:34.467Z,1.80
2022-11-03T12:10:16.798Z,1.77
2022-11-03T12:12:45.863Z,1.40
2022-11-03T12:16:01.736Z,1.77
2022-11-03T12:18:38.892Z,1.30
2022-11-03T12:21:16.740Z,1.50
2022-11-03T12:23:46.571Z,1.50
2022-11-03T12:26:46.796Z,1.70
2022-11-03T12:29:14.952Z,1.60
2022-11-03T12:31:49.962Z,1.90
2022-11-03T12:34:18.658Z,1.57
2022-11-03T12:36:56.376Z,1.70
2022-11-03T12:39:24.963Z,1.70
2022-11-03T12:42:00.776Z,1.60
2022-11-03T12:44:29.311Z,1.40
2022-11-03T12:47:03.921Z,1.50
2022-11-03T12:49:32.234Z,1.70
2022-11-03T12:52:12.704Z,1.70
2022-11-03T12:54:42.448Z,1.80
2022-11-03T12:57:18.950Z,1.73
2022-11-03T12:59:54.217Z,1.83
2022-11-03T13:02:28.972Z,1.70
2022-11-03T13:04:57.487Z,1.27
2022-11-03T13:07:34.926Z,1.80
2022-11-03T13:10:04.987Z,1.70
2022-11-03T13:12:42.976Z,1.60
2022-11-03T13:15:13.586Z,1.67
2022-11-03T13:20:37.794Z,1.93
2022-11-03T13:23:13.710Z,2.00
2022-11-03T13:25:43.837Z,2.00
2022-11-03T13:28:19.954Z,1.43
2022-11-03T13:30:49.170Z,1.87
2022-11-03T13:33:23.930Z,1.90
2022-11-03T13:35:52.172Z,1.70
2022-11-03T13:38:27.877Z,1.70
2022-11-03T13:40:57.779Z,2.00
2022-11-03T13:43:35.813Z,1.90
2022-11-03T13:46:05.300Z,1.73
2022-11-03T13:51:35.885Z,1.87
2022-11-03T14:00:08.936Z,2.00
2022-11-03T14:05:32.177Z,1.57
2022-11-03T14:08:07.264Z,1.93
2022-11-03T14:10:35.819Z,2.00
2022-11-03T14:13:10.303Z,2.13
2022-11-03T14:15:40.378Z,2.23
2022-11-03T14:18:14.815Z,1.73
2022-11-03T14:20:43.370Z,1.80
2022-11-03T14:23:17.839Z,2.27
2022-11-03T14:25:52.064Z,2.20
2022-11-03T14:28:35.861Z,1.93
2022-11-03T14:31:06.738Z,2.03
2022-11-03T14:33:42.097Z,1.97
2022-11-03T14:36:10.329Z,1.90
2022-11-03T14:38:49.828Z,2.10
2022-11-03T14:41:35.656Z,1.80
2022-11-03T14:44:11.166Z,1.97
2022-11-03T14:46:42.034Z,1.80
2022-11-03T14:49:16.882Z,1.83
2022-11-03T14:51:45.322Z,1.70
2022-11-03T14:54:19.874Z,1.67
2022-11-03T14:56:48.292Z,2.00
2022-11-03T14:59:22.855Z,1.70
2022-11-03T15:02:00.278Z,1.70
2022-11-03T15:04:34.905Z,1.70
2022-11-03T15:07:03.055Z,1.80
2022-11-03T15:09:37.903Z,1.87
2022-11-03T15:12:06.377Z,1.80
2022-11-03T15:14:41.923Z,2.30
2022-11-03T15:17:11.658Z,1.90
2022-11-03T15:19:47.131Z,2.07
2022-11-03T15:22:15.870Z,2.00
2022-11-03T15:27:40.298Z,2.07
2022-11-03T15:30:16.897Z,2.10
2022-11-03T15:32:46.905Z,3.20
2022-11-03T15:35:21.963Z,3.03
2022-11-03T15:37:50.316Z,2.80
2022-11-03T15:40:25.121Z,2.90
2022-11-03T15:42:55.221Z,1.97
2022-11-03T15:45:33.006Z,2.20
2022-11-03T15:48:03.619Z,2.20
2022-11-03T15:50:38.962Z,2.40
2022-11-03T15:53:07.181Z,2.30
2022-11-03T15:55:42.136Z,2.20
2022-11-03T15:58:10.530Z,2.43
2022-11-03T16:00:52.004Z,2.27
2022-11-03T16:03:21.819Z,2.20
2022-11-03T16:05:57.096Z,2.23
2022-11-03T16:08:25.249Z,2.20
2022-11-03T16:11:00.652Z,2.50
2022-11-03T16:13:29.118Z,2.50
2022-11-03T16:16:04.005Z,2.33
2022-11-03T16:18:33.769Z,2.40
2022-11-03T16:21:08.939Z,2.30
2022-11-03T16:23:37.339Z,2.30
2022-11-03T16:26:13.151Z,2.80
2022-11-03T16:28:41.675Z,2.90
2022-11-03T16:31:15.978Z,2.97
2022-11-03T16:33:45.928Z,2.93
2022-11-03T16:36:21.040Z,2.83
2022-11-03T16:38:49.561Z,2.90
2022-11-03T16:41:23.963Z,2.77
2022-11-03T16:43:52.476Z,2.90
2022-11-03T16:46:27.163Z,3.00
2022-11-03T16:48:56.963Z,3.13
2022-11-03T16:51:32.050Z,3.03
2022-11-03T16:54:00.428Z,2.83
2022-11-03T16:56:35.111Z,2.90
2022-11-03T16:59:23.040Z,4.60
2022-11-03T17:01:58.268Z,4.60
2022-11-03T17:04:28.246Z,4.80
2022-11-03T17:07:03.043Z,4.13
2022-11-03T17:09:31.611Z,4.47
2022-11-03T17:12:06.060Z,3.43
2022-11-03T17:14:36.171Z,3.77
2022-11-03T17:17:11.195Z,3.37
2022-11-03T17:19:40.786Z,3.17
2022-11-03T17:22:15.077Z,3.40
2022-11-03T17:24:43.693Z,3.40
2022-11-03T17:27:23.022Z,3.40
2022-11-03T17:29:54.699Z,3.20
2022-11-03T17:32:33.082Z,3.63
2022-11-03T17:35:03.004Z,3.50
2022-11-03T17:37:39.029Z,3.40
2022-11-03T17:40:15.889Z,3.50
2022-11-03T17:42:51.106Z,3.57
2022-11-03T17:45:21.793Z,3.67
2022-11-03T17:47:58.224Z,3.23
2022-11-03T17:50:28.476Z,2.80
2022-11-03T17:53:04.414Z,3.10
2022-11-03T17:55:41.098Z,3.00
2022-11-03T17:58:11.575Z,2.80
2022-11-03T18:00:53.225Z,3.03
2022-11-03T18:03:21.431Z,2.80
2022-11-03T18:05:58.240Z,2.60
2022-11-03T18:08:26.893Z,2.70
2022-11-03T18:11:03.124Z,2.63
2022-11-03T18:13:34.461Z,2.70
2022-11-03T18:16:14.069Z,2.57
2022-11-03T18:18:44.052Z,2.80
2022-11-03T18:21:22.288Z,2.60
2022-11-03T18:23:50.995Z,2.63
2022-11-03T18:26:27.242Z,2.37
2022-11-03T18:28:55.704Z,2.67
2022-11-03T18:31:35.257Z,3.30
2022-11-03T18:34:06.455Z,3.20
2022-11-03T18:36:43.149Z,4.20
2022-11-03T18:39:15.674Z,4.10
2022-11-03T18:41:51.168Z,4.33
2022-11-03T18:44:22.105Z,4.30
2022-11-03T18:46:58.361Z,3.60
2022-11-03T18:49:27.497Z,3.30
2022-11-03T18:52:06.110Z,3.10
2022-11-03T18:54:36.347Z,3.70
2022-11-03T18:57:11.279Z,4.23
2022-11-03T18:59:48.535Z,3.37
2022-11-03T19:02:33.353Z,3.37
2022-11-03T19:05:01.846Z,3.53
2022-11-03T19:07:42.291Z,3.33
2022-11-03T19:10:14.871Z,3.17
2022-11-03T19:12:51.091Z,3.60
2022-11-03T19:15:22.787Z,3.50
2022-11-03T19:17:59.173Z,3.30
2022-11-03T19:20:27.637Z,3.80
2022-11-03T19:23:04.419Z,3.50
2022-11-03T19:25:33.150Z,3.40
2022-11-03T19:28:08.090Z,3.40
2022-11-03T19:30:36.294Z,3.30
2022-11-03T19:33:12.203Z,3.17
2022-11-03T19:35:42.842Z,3.20
2022-11-03T19:38:22.230Z,3.57
2022-11-03T19:41:16.287Z,3.70
2022-11-03T19:43:51.147Z,2.93
2022-11-03T19:46:21.019Z,2.50
2022-11-03T19:48:56.163Z,2.67
2022-11-03T19:51:31.318Z,2.70
2022-11-03T19:54:01.048Z,2.50
2022-11-03T19:56:36.233Z,3.03
2022-11-03T19:59:17.673Z,2.80
2022-11-03T20:01:59.286Z,2.57
2022-11-03T20:04:27.693Z,2.73
2022-11-03T20:07:03.323Z,2.87
2022-11-03T20:09:33.460Z,2.40
2022-11-03T20:12:13.370Z,2.23
2022-11-03T20:14:41.498Z,2.47
2022-11-03T20:17:20.187Z,2.30
2022-11-03T20:19:48.886Z,2.00
2022-11-03T20:22:29.201Z,2.10
2022-11-03T20:25:03.354Z,2.30
2022-11-03T20:27:39.266Z,2.20
2022-11-03T20:30:11.264Z,2.67
2022-11-03T20:32:46.383Z,2.50
2022-11-03T20:35:18.749Z,2.40
2022-11-03T20:37:58.204Z,2.53
2022-11-03T20:40:31.728Z,2.17
2022-11-03T20:43:08.202Z,1.40
2022-11-03T20:45:36.617Z,1.70
2022-11-03T20:48:12.274Z,1.20
2022-11-03T20:50:42.029Z,0.90
2022-11-03T20:53:22.402Z,1.00
2022-11-03T20:55:53.070Z,0.93
2022-11-03T20:58:28.452Z,1.00
2022-11-03T21:01:16.328Z,1.00
2022-11-03T21:03:59.133Z,1.00
2022-11-03T21:06:29.037Z,1.00
2022-11-03T21:09:04.373Z,1.07
2022-11-03T21:11:40.542Z,1.00
2022-11-03T21:14:22.402Z,1.13
2022-11-03T21:17:14.431Z,1.30
2022-11-03T21:19:56.734Z,1.23
2022-11-03T21:25:23.413Z,1.10
2022-11-03T21:28:01.422Z,1.10
2022-11-03T21:30:29.828Z,1.10
2022-11-03T21:33:04.434Z,1.10
2022-11-03T21:35:32.960Z,1.10
2022-11-03T21:38:08.689Z,1.20
2022-11-03T21:40:37.458Z,1.00
2022-11-03T21:43:31.289Z,1.27
2022-11-03T21:46:10.125Z,1.10
2022-11-03T21:49:03.451Z,1.67
2022-11-03T21:51:31.875Z,1.10
2022-11-03T21:54:06.255Z,1.20
2022-11-03T21:56:34.750Z,1.30
2022-11-03T21:59:11.440Z,1.50
2022-11-03T22:01:46.578Z,1.30
2022-11-03T22:04:22.632Z,1.53
2022-11-03T22:06:51.409Z,1.90
2022-11-03T22:09:26.317Z,1.63
2022-11-03T22:11:55.352Z,1.80
2022-11-03T22:14:33.516Z,2.03
2022-11-03T22:19:53.321Z,1.93
2022-11-03T22:22:39.187Z,2.00
2022-11-03T22:25:32.280Z,2.20
2022-11-03T22:28:00.649Z,1.93
2022-11-03T22:30:59.599Z,2.40
2022-11-03T22:33:28.413Z,2.43
2022-11-03T22:36:21.924Z,2.43
2022-11-03T22:39:08.014Z,2.20
2022-11-03T22:42:05.090Z,2.60
2022-11-03T22:44:52.164Z,2.77
2022-11-03T22:47:28.314Z,2.60
2022-11-03T22:49:56.730Z,2.57
2022-11-03T22:52:31.320Z,2.70
2022-11-03T22:54:58.507Z,2.60
2022-11-03T22:57:33.347Z,2.70
2022-11-03T23:00:07.762Z,2.80
2022-11-03T23:02:50.349Z,2.90
2022-11-03T23:05:18.810Z,3.10
2022-11-03T23:07:53.402Z,3.13
2022-11-03T23:10:28.350Z,4.60
2022-11-03T23:13:03.384Z,3.00
2022-11-03T23:15:34.331Z,2.60
2022-11-03T23:18:29.511Z,4.40
2022-11-03T23:21:09.777Z,2.97
2022-11-03T23:24:04.368Z,2.77
2022-11-03T23:26:32.634Z,2.40
2022-11-03T23:29:07.542Z,2.43
2022-11-03T23:31:36.726Z,2.50
2022-11-03T23:34:13.358Z,2.83
2022-11-03T23:36:42.453Z,2.60
2022-11-03T23:39:21.409Z,2.50
2022-11-03T23:42:04.841Z,2.43
2022-11-03T23:44:59.413Z,2.30
2022-11-03T23:47:51.365Z,2.30
2022-11-03T23:50:21.201Z,2.30
2022-11-03T23:52:57.055Z,2.20
2022-11-03T23:55:25.280Z,1.63
2022-11-03T23:58:17.429Z,1.90
